Friday, July 20, 2018, 8:50 AM GMT
Back to Local

CWSD, Summerside Automatic Weather Reporting System

Location: , , Canada Lat: 46.433
Local Time: 8:50 AM GMT ( 8:50 GMT) Lon: -63.85
Time Zone: GMT Elev: 78 ft

Show me the last for .
Show Coded

Time T Td Feel RH Dir Speed Gust Alt SLP Vis Weather Sky Remarks
2018-07-20 08:00 59 55 - 84 200° 8 - - 30.10 0 None
2018-07-20 07:00 61 56 - 82 210° 9 - - 30.09 0 None
2018-07-20 06:00 61 56 - 85 200° 8 - - 30.09 0 None
2018-07-20 05:00 62 57 - 83 200° 8 - - 30.07 0 None
2018-07-20 04:00 63 57 - 79 200° 9 - - 30.07 0 None
2018-07-20 03:00 64 56 - 75 200° 9 - - 30.07 0 None
2018-07-20 02:00 65 58 - 80 190° 9 - - 30.06 0 None
2018-07-20 01:00 65 59 - 80 180° 8 - - 30.05 0 None
2018-07-20 00:00 67 57 - 70 150° 6 - - 30.02 0 None
2018-07-19 23:00 71 56 76 58 170° 5 - - 30.01 0 None
2018-07-19 22:00 72 56 76 57 210° 6 - - 30.01 0 None
2018-07-19 21:00 72 55 76 55 50° 2 - - 30.01 0 None
2018-07-19 20:00 71 56 76 58 50° 7 - - 30.01 0 None
2018-07-19 19:00 71 56 76 60 30° 6 - - 30.01 0 None
2018-07-19 18:00 71 58 76 63 40° 8 - - 30.00 0 None
2018-07-19 17:00 70 56 - 62 50° 9 - - 29.99 0 None
2018-07-19 16:00 70 57 - 63 50° 8 - - 30.00 0 None
2018-07-19 15:00 70 58 - 67 30° 10 - - 29.99 0 None
2018-07-19 14:00 69 57 - 66 40° 8 - - 29.98 0 None
2018-07-19 13:00 68 55 - 63 10° 7 - - 29.98 0 None
2018-07-19 12:00 66 56 - 70 350° 8 - - 29.96 0 None
2018-07-19 11:00 63 56 - 80 320° 6 - - 29.95 0 None
2018-07-19 10:00 57 53 - 88 290° 2 - - 29.94 0 None
2018-07-19 09:00 55 53 - 95 330° 5 - - 29.92 0 None

Support USWX by starting your Amazon purchase here.